Time,TemperatureF,DewpointF,PressureIn,WindDirection,WindDirectionDegrees,WindSpeedMPH,WindSpeedGustMPH,Humidity,HourlyPrecipIn,Conditions,Clouds,dailyrainin,SoftwareType,DateUTC
2013-02-26 00:00:00,31.9,30.4,30.25,ESE,105,0.0,0.0,94,0.00,,,0.03,Wunderground v.1.15,2013-02-26 05:00:00,
2013-02-26 00:05:00,31.8,30.3,30.25,ESE,105,0.0,0.0,94,0.00,,,0.03,Wunderground v.1.15,2013-02-26 05:05:00,
2013-02-26 00:15:00,31.8,30.3,30.25,ESE,105,0.0,0.0,94,0.00,,,0.03,Wunderground v.1.15,2013-02-26 05:15:00,
2013-02-26 00:20:00,31.8,30.3,30.25,ESE,105,0.0,0.0,94,0.00,,,0.03,Wunderground v.1.15,2013-02-26 05:20:00,
2013-02-26 00:25:00,31.9,30.4,30.25,ESE,105,0.0,0.0,94,0.00,,,0.00,Wunderground v.1.15,2013-02-26 05:25:00,
2013-02-26 00:30:00,31.9,30.4,30.25,ESE,105,0.0,0.0,94,0.00,,,0.00,Wunderground v.1.15,2013-02-26 05:30:00,
2013-02-26 00:35:00,32.0,30.5,30.25,ESE,105,0.0,0.0,94,0.00,,,0.00,Wunderground v.1.15,2013-02-26 05:35:00,
2013-02-26 00:41:00,32.0,30.5,30.25,ESE,105,0.0,0.0,94,0.00,,,0.00,Wunderground v.1.15,2013-02-26 05:41:00,
2013-02-26 00:47:00,32.0,30.2,30.25,ESE,105,0.0,0.0,93,0.00,,,0.00,Wunderground v.1.15,2013-02-26 05:47:00,
2013-02-26 00:52:00,32.0,30.2,30.25,ESE,105,0.0,0.0,93,0.00,,,0.00,Wunderground v.1.15,2013-02-26 05:52:00,
2013-02-26 00:57:00,31.9,30.1,30.25,ESE,105,0.0,0.0,93,0.00,,,0.00,Wunderground v.1.15,2013-02-26 05:57:00,
2013-02-26 01:02:00,31.9,30.1,30.25,ESE,105,0.0,0.0,93,0.00,,,0.00,Wunderground v.1.15,2013-02-26 06:02:00,
2013-02-26 01:08:00,31.9,30.1,30.25,ESE,105,0.0,0.0,93,0.00,,,0.00,Wunderground v.1.15,2013-02-26 06:08:00,
2013-02-26 01:13:00,31.9,30.1,30.25,ESE,105,0.0,0.0,93,0.00,,,0.00,Wunderground v.1.15,2013-02-26 06:13:00,
2013-02-26 01:19:00,31.8,30.0,30.25,ESE,105,0.0,0.0,93,0.00,,,0.00,Wunderground v.1.15,2013-02-26 06:19:00,
2013-02-26 01:25:00,31.7,29.9,30.24,ESE,105,0.0,0.0,93,0.00,,,0.00,Wunderground v.1.15,2013-02-26 06:25:00,
2013-02-26 01:30:00,31.7,29.9,30.24,ESE,105,0.0,0.0,93,0.00,,,0.00,Wunderground v.1.15,2013-02-26 06:30:00,
2013-02-26 01:35:00,31.7,29.9,30.25,ESE,105,0.0,0.0,93,0.00,,,0.00,Wunderground v.1.15,2013-02-26 06:35:00,
2013-02-26 01:41:00,31.7,29.9,30.24,ESE,105,0.0,0.0,93,0.00,,,0.00,Wunderground v.1.15,2013-02-26 06:41:00,
2013-02-26 01:46:00,31.6,29.8,30.24,ESE,105,2.0,2.0,93,0.00,,,0.00,Wunderground v.1.15,2013-02-26 06:46:00,
2013-02-26 01:52:00,31.5,29.7,30.24,ESE,105,1.0,1.0,93,0.00,,,0.00,Wunderground v.1.15,2013-02-26 06:52:00,
2013-02-26 01:58:00,31.5,30.0,30.24,ESE,105,0.0,1.0,94,0.00,,,0.00,Wunderground v.1.15,2013-02-26 06:58:00,
2013-02-26 02:03:00,31.4,29.9,30.25,ESE,105,0.0,1.0,94,0.00,,,0.00,Wunderground v.1.15,2013-02-26 07:03:00,
2013-02-26 02:08:00,31.4,29.9,30.24,ESE,105,0.0,1.0,94,0.00,,,0.00,Wunderground v.1.15,2013-02-26 07:08:00,
2013-02-26 02:13:00,31.4,29.9,30.24,ESE,105,0.0,0.0,94,0.00,,,0.00,Wunderground v.1.15,2013-02-26 07:13:00,
2013-02-26 02:18:00,31.4,29.9,30.24,ESE,105,0.0,0.0,94,0.00,,,0.00,Wunderground v.1.15,2013-02-26 07:18:00,
2013-02-26 02:23:00,31.4,29.9,30.24,ESE,105,0.0,0.0,94,0.00,,,0.00,Wunderground v.1.15,2013-02-26 07:23:00,
2013-02-26 02:28:00,31.4,29.9,30.24,ESE,105,0.0,0.0,94,0.00,,,0.00,Wunderground v.1.15,2013-02-26 07:28:00,
2013-02-26 02:33:00,31.3,29.8,30.24,ESE,105,0.0,0.0,94,0.00,,,0.00,Wunderground v.1.15,2013-02-26 07:33:00,
2013-02-26 02:38:00,31.2,29.7,30.24,ESE,105,0.0,0.0,94,0.00,,,0.00,Wunderground v.1.15,2013-02-26 07:38:00,
2013-02-26 02:43:00,31.1,29.6,30.24,ESE,105,0.0,0.0,94,0.00,,,0.00,Wunderground v.1.15,2013-02-26 07:43:00,
2013-02-26 02:49:00,31.0,29.5,30.24,ESE,105,0.0,1.0,94,0.00,,,0.00,Wunderground v.1.15,2013-02-26 07:49:00,
2013-02-26 02:54:00,31.0,29.5,30.24,ESE,105,0.0,1.0,94,0.00,,,0.00,Wunderground v.1.15,2013-02-26 07:54:00,
2013-02-26 02:59:00,30.8,29.3,30.25,ESE,105,0.0,1.0,94,0.00,,,0.00,Wunderground v.1.15,2013-02-26 07:59:00,
2013-02-26 03:04:00,30.7,29.2,30.26,ESE,105,0.0,0.0,94,0.00,,,0.00,Wunderground v.1.15,2013-02-26 08:04:00,
2013-02-26 03:09:00,30.6,29.1,30.26,ESE,105,0.0,0.0,94,0.00,,,0.00,Wunderground v.1.15,2013-02-26 08:09:00,
2013-02-26 03:14:00,30.4,28.9,30.27,ESE,105,0.0,0.0,94,0.00,,,0.00,Wunderground v.1.15,2013-02-26 08:14:00,
2013-02-26 03:19:00,30.3,28.8,30.27,ESE,105,0.0,0.0,94,0.00,,,0.00,Wunderground v.1.15,2013-02-26 08:19:00,
2013-02-26 03:24:00,30.1,28.6,30.27,ESE,105,0.0,0.0,94,0.00,,,0.00,Wunderground v.1.15,2013-02-26 08:24:00,
2013-02-26 03:29:00,30.0,28.5,30.28,ESE,105,0.0,0.0,94,0.00,,,0.00,Wunderground v.1.15,2013-02-26 08:29:00,
2013-02-26 03:34:00,29.8,28.3,30.28,ESE,105,0.0,0.0,94,0.00,,,0.00,Wunderground v.1.15,2013-02-26 08:34:00,
2013-02-26 03:39:00,29.7,28.2,30.28,ESE,105,0.0,0.0,94,0.00,,,0.00,Wunderground v.1.15,2013-02-26 08:39:00,
2013-02-26 03:44:00,29.6,28.1,30.28,ESE,105,0.0,0.0,94,0.00,,,0.00,Wunderground v.1.15,2013-02-26 08:44:00,
2013-02-26 03:49:00,29.5,28.0,30.28,ESE,105,0.0,0.0,94,0.00,,,0.00,Wunderground v.1.15,2013-02-26 08:49:00,
2013-02-26 03:54:00,29.4,27.9,30.27,ESE,105,0.0,0.0,94,0.00,,,0.00,Wunderground v.1.15,2013-02-26 08:54:00,
2013-02-26 03:59:00,29.3,27.8,30.28,ESE,105,0.0,0.0,94,0.00,,,0.00,Wunderground v.1.15,2013-02-26 08:59:00,
2013-02-26 04:04:00,29.2,27.7,30.28,ESE,105,0.0,0.0,94,0.00,,,0.00,Wunderground v.1.15,2013-02-26 09:04:00,
2013-02-26 04:09:00,29.1,27.6,30.29,ESE,105,0.0,0.0,94,0.00,,,0.00,Wunderground v.1.15,2013-02-26 09:09:00,
2013-02-26 04:14:00,29.1,27.8,30.29,ESE,105,0.0,0.0,95,0.00,,,0.00,Wunderground v.1.15,2013-02-26 09:14:00,
2013-02-26 04:19:00,29.0,27.7,30.29,ESE,105,0.0,0.0,95,0.00,,,0.00,Wunderground v.1.15,2013-02-26 09:19:00,
2013-02-26 04:24:00,28.9,27.4,30.29,ESE,105,0.0,0.0,94,0.00,,,0.00,Wunderground v.1.15,2013-02-26 09:24:00,
2013-02-26 04:29:00,28.9,27.6,30.29,ESE,105,0.0,0.0,95,0.00,,,0.00,Wunderground v.1.15,2013-02-26 09:29:00,
2013-02-26 04:34:00,28.9,27.6,30.29,ESE,105,0.0,0.0,95,0.00,,,0.00,Wunderground v.1.15,2013-02-26 09:34:00,
2013-02-26 04:39:00,28.8,27.5,30.29,ESE,105,0.0,0.0,95,0.00,,,0.00,Wunderground v.1.15,2013-02-26 09:39:00,
2013-02-26 04:44:00,28.8,27.5,30.29,ESE,105,0.0,0.0,95,0.00,,,0.00,Wunderground v.1.15,2013-02-26 09:44:00,
2013-02-26 04:49:00,28.7,27.4,30.29,ESE,105,0.0,0.0,95,0.00,,,0.00,Wunderground v.1.15,2013-02-26 09:49:00,
2013-02-26 04:54:00,28.5,27.3,30.29,ESE,105,0.0,0.0,95,0.00,,,0.00,Wunderground v.1.15,2013-02-26 09:54:00,
2013-02-26 04:59:00,28.5,27.3,30.29,ESE,105,0.0,0.0,95,0.00,,,0.00,Wunderground v.1.15,2013-02-26 09:59:00,
2013-02-26 05:04:00,28.3,26.8,30.29,ESE,105,0.0,0.0,94,0.00,,,0.00,Wunderground v.1.15,2013-02-26 10:04:00,
2013-02-26 05:09:00,28.1,26.6,30.28,ESE,105,0.0,0.0,94,0.00,,,0.00,Wunderground v.1.15,2013-02-26 10:09:00,
2013-02-26 05:14:00,28.0,26.8,30.28,ESE,105,0.0,0.0,95,0.00,,,0.00,Wunderground v.1.15,2013-02-26 10:14:00,
2013-02-26 05:19:00,28.0,26.8,30.28,ESE,105,0.0,0.0,95,0.00,,,0.00,Wunderground v.1.15,2013-02-26 10:19:00,
2013-02-26 05:24:00,27.9,26.7,30.29,ESE,105,0.0,0.0,95,0.00,,,0.00,Wunderground v.1.15,2013-02-26 10:24:00,
2013-02-26 05:29:00,27.9,26.7,30.28,ESE,105,0.0,0.0,95,0.00,,,0.00,Wunderground v.1.15,2013-02-26 10:29:00,
2013-02-26 05:34:00,27.9,26.7,30.28,ESE,105,0.0,0.0,95,0.00,,,0.00,Wunderground v.1.15,2013-02-26 10:34:00,
2013-02-26 05:39:00,27.8,26.6,30.29,ESE,105,0.0,0.0,95,0.00,,,0.00,Wunderground v.1.15,2013-02-26 10:39:00,
2013-02-26 05:44:00,27.8,26.6,30.29,ESE,105,0.0,0.0,95,0.00,,,0.00,Wunderground v.1.15,2013-02-26 10:44:00,
2013-02-26 05:49:00,27.7,26.5,30.29,ESE,105,0.0,0.0,95,0.00,,,0.00,Wunderground v.1.15,2013-02-26 10:49:00,
2013-02-26 05:54:00,27.7,26.5,30.30,ESE,105,0.0,0.0,95,0.00,,,0.00,Wunderground v.1.15,2013-02-26 10:54:00,
2013-02-26 05:59:00,27.6,26.4,30.30,ESE,105,0.0,0.0,95,0.00,,,0.00,Wunderground v.1.15,2013-02-26 10:59:00,
2013-02-26 06:05:00,27.6,26.4,30.30,ESE,105,0.0,0.0,95,0.00,,,0.00,Wunderground v.1.15,2013-02-26 11:05:00,
2013-02-26 06:10:00,27.5,26.3,30.30,ESE,105,0.0,0.0,95,0.00,,,0.00,Wunderground v.1.15,2013-02-26 11:10:00,
2013-02-26 06:15:00,27.4,26.2,30.30,ESE,105,0.0,1.0,95,0.00,,,0.00,Wunderground v.1.15,2013-02-26 11:15:00,
2013-02-26 06:20:00,27.4,26.2,30.30,ESE,105,0.0,1.0,95,0.00,,,0.00,Wunderground v.1.15,2013-02-26 11:20:00,
2013-02-26 06:25:00,27.4,26.2,30.30,ESE,105,0.0,0.0,95,0.00,,,0.00,Wunderground v.1.15,2013-02-26 11:25:00,
2013-02-26 06:30:00,27.3,26.1,30.30,ESE,105,0.0,0.0,95,0.00,,,0.00,Wunderground v.1.15,2013-02-26 11:30:00,
2013-02-26 06:35:00,27.2,26.0,30.30,ESE,105,0.0,0.0,95,0.00,,,0.00,Wunderground v.1.15,2013-02-26 11:35:00,
2013-02-26 06:40:00,27.2,26.0,30.30,ESE,105,0.0,0.0,95,0.00,,,0.00,Wunderground v.1.15,2013-02-26 11:40:00,
2013-02-26 06:45:00,27.2,26.0,30.30,ESE,105,0.0,0.0,95,0.00,,,0.00,Wunderground v.1.15,2013-02-26 11:45:00,
2013-02-26 06:50:00,27.1,25.9,30.30,ESE,105,0.0,0.0,95,0.00,,,0.00,Wunderground v.1.15,2013-02-26 11:50:00,
2013-02-26 06:55:00,27.0,25.8,30.30,ESE,105,0.0,0.0,95,0.00,,,0.00,Wunderground v.1.15,2013-02-26 11:55:00,
2013-02-26 07:00:00,27.1,25.9,30.31,ESE,105,0.0,0.0,95,0.00,,,0.00,Wunderground v.1.15,2013-02-26 12:00:00,
2013-02-26 07:05:00,27.1,25.9,30.31,ESE,105,0.0,0.0,95,0.00,,,0.00,Wunderground v.1.15,2013-02-26 12:05:00,
2013-02-26 07:10:00,27.3,26.1,30.31,ESE,105,0.0,0.0,95,0.00,,,0.00,Wunderground v.1.15,2013-02-26 12:10:00,
2013-02-26 07:15:00,27.4,26.4,30.31,ESE,105,0.0,0.0,96,0.00,,,0.00,Wunderground v.1.15,2013-02-26 12:15:00,
2013-02-26 07:20:00,27.5,26.5,30.31,ESE,105,0.0,0.0,96,0.00,,,0.00,Wunderground v.1.15,2013-02-26 12:20:00,
2013-02-26 07:25:00,27.7,26.7,30.31,ESE,105,0.0,0.0,96,0.00,,,0.00,Wunderground v.1.15,2013-02-26 12:25:00,
2013-02-26 07:30:00,27.9,26.9,30.31,ESE,105,0.0,0.0,96,0.00,,,0.00,Wunderground v.1.15,2013-02-26 12:30:00,
2013-02-26 07:35:00,28.2,27.2,30.31,ESE,105,0.0,0.0,96,0.00,,,0.00,Wunderground v.1.15,2013-02-26 12:35:00,
2013-02-26 07:40:00,28.3,27.3,30.31,ESE,105,0.0,0.0,96,0.00,,,0.00,Wunderground v.1.15,2013-02-26 12:40:00,
2013-02-26 07:45:00,28.4,27.2,30.32,ESE,105,0.0,0.0,95,0.00,,,0.00,Wunderground v.1.15,2013-02-26 12:45:00,
2013-02-26 07:50:00,28.3,27.1,30.32,ESE,105,0.0,0.0,95,0.00,,,0.00,Wunderground v.1.15,2013-02-26 12:50:00,
2013-02-26 07:55:00,28.4,27.2,30.32,ESE,105,0.0,0.0,95,0.00,,,0.00,Wunderground v.1.15,2013-02-26 12:55:00,
2013-02-26 08:00:00,28.4,27.2,30.32,ESE,105,0.0,0.0,95,0.00,,,0.00,Wunderground v.1.15,2013-02-26 13:00:00,
2013-02-26 08:05:00,28.5,27.3,30.32,ESE,105,0.0,0.0,95,0.00,,,0.00,Wunderground v.1.15,2013-02-26 13:05:00,
2013-02-26 08:10:00,28.5,27.3,30.32,ESE,105,0.0,0.0,95,0.00,,,0.00,Wunderground v.1.15,2013-02-26 13:10:00,
2013-02-26 08:15:00,28.6,27.4,30.32,ESE,105,0.0,0.0,95,0.00,,,0.00,Wunderground v.1.15,2013-02-26 13:15:00,
2013-02-26 08:20:00,28.8,27.5,30.33,ESE,105,0.0,0.0,95,0.00,,,0.00,Wunderground v.1.15,2013-02-26 13:20:00,
2013-02-26 08:25:00,29.0,27.7,30.33,ESE,105,0.0,0.0,95,0.00,,,0.00,Wunderground v.1.15,2013-02-26 13:25:00,
2013-02-26 08:30:00,29.1,27.8,30.33,ESE,105,0.0,0.0,95,0.00,,,0.00,Wunderground v.1.15,2013-02-26 13:30:00,
2013-02-26 08:35:00,29.2,27.9,30.32,ESE,105,1.0,1.0,95,0.00,,,0.00,Wunderground v.1.15,2013-02-26 13:35:00,
2013-02-26 08:40:00,29.4,28.1,30.32,ESE,105,0.0,0.0,95,0.00,,,0.00,Wunderground v.1.15,2013-02-26 13:40:00,
2013-02-26 08:45:00,29.7,28.4,30.33,ESE,105,1.0,2.0,95,0.00,,,0.00,Wunderground v.1.15,2013-02-26 13:45:00,
2013-02-26 08:51:00,30.1,29.1,30.33,ESE,105,2.0,2.0,96,0.00,,,0.00,Wunderground v.1.15,2013-02-26 13:51:00,
2013-02-26 08:55:00,30.4,29.1,30.33,ESE,105,3.0,3.0,95,0.00,,,0.00,Wunderground v.1.15,2013-02-26 13:55:00,
2013-02-26 09:01:00,30.7,29.7,30.33,ESE,105,2.0,2.0,96,0.00,,,0.00,Wunderground v.1.15,2013-02-26 14:01:00,
2013-02-26 09:06:00,31.1,29.8,30.33,ESE,105,1.0,3.0,95,0.00,,,0.00,Wunderground v.1.15,2013-02-26 14:06:00,
2013-02-26 09:11:00,31.5,30.2,30.33,ESE,105,2.0,3.0,95,0.00,,,0.00,Wunderground v.1.15,2013-02-26 14:11:00,
2013-02-26 09:16:00,31.8,30.5,30.33,NNE,26,3.0,3.0,95,0.00,,,0.00,Wunderground v.1.15,2013-02-26 14:16:00,
2013-02-26 09:21:00,32.2,30.7,30.33,NNE,27,1.0,2.0,94,0.00,,,0.00,Wunderground v.1.15,2013-02-26 14:21:00,
2013-02-26 09:26:00,32.5,31.0,30.33,NNE,27,1.0,2.0,94,0.00,,,0.00,Wunderground v.1.15,2013-02-26 14:26:00,
2013-02-26 09:31:00,32.9,30.8,30.33,NNE,27,3.0,3.0,92,0.00,,,0.00,Wunderground v.1.15,2013-02-26 14:31:00,
2013-02-26 09:36:00,33.2,31.1,30.33,NNE,27,2.0,3.0,92,0.00,,,0.00,Wunderground v.1.15,2013-02-26 14:36:00,
2013-02-26 09:41:00,33.4,31.3,30.33,NNE,27,3.0,3.0,92,0.00,,,0.00,Wunderground v.1.15,2013-02-26 14:41:00,
2013-02-26 09:46:00,33.7,31.1,30.33,NNE,27,2.0,3.0,90,0.00,,,0.00,Wunderground v.1.15,2013-02-26 14:46:00,
2013-02-26 09:51:00,34.1,31.5,30.32,NNE,27,1.0,2.0,90,0.00,,,0.00,Wunderground v.1.15,2013-02-26 14:51:00,
2013-02-26 09:56:00,34.8,31.6,30.32,NNE,27,0.0,2.0,88,0.00,,,0.00,Wunderground v.1.15,2013-02-26 14:56:00,
2013-02-26 10:01:00,35.7,31.6,30.32,NNE,27,0.0,2.0,85,0.00,,,0.00,Wunderground v.1.15,2013-02-26 15:01:00,
2013-02-26 10:06:00,36.3,31.3,30.32,ENE,62,1.0,3.0,82,0.00,,,0.00,Wunderground v.1.15,2013-02-26 15:06:00,
2013-02-26 10:11:00,37.0,31.7,30.32,ENE,62,3.0,3.0,81,0.00,,,0.00,Wunderground v.1.15,2013-02-26 15:11:00,
2013-02-26 10:16:00,37.6,31.4,30.32,ENE,62,3.0,3.0,78,0.00,,,0.00,Wunderground v.1.15,2013-02-26 15:16:00,
2013-02-26 10:21:00,37.8,31.6,30.32,ENE,68,3.0,5.0,78,0.00,,,0.00,Wunderground v.1.15,2013-02-26 15:21:00,
2013-02-26 10:26:00,37.6,31.4,30.32,ENE,68,4.0,5.0,78,0.00,,,0.00,Wunderground v.1.15,2013-02-26 15:26:00,
2013-02-26 10:31:00,37.4,31.2,30.32,East,95,6.0,8.0,78,0.00,,,0.00,Wunderground v.1.15,2013-02-26 15:31:00,
2013-02-26 10:36:00,37.5,30.6,30.32,ENE,66,4.0,8.0,76,0.00,,,0.00,Wunderground v.1.15,2013-02-26 15:36:00,
2013-02-26 10:41:00,37.8,31.2,30.32,ENE,74,3.0,4.0,77,0.00,,,0.00,Wunderground v.1.15,2013-02-26 15:41:00,
2013-02-26 10:46:00,37.8,30.9,30.32,East,88,1.0,5.0,76,0.00,,,0.00,Wunderground v.1.15,2013-02-26 15:46:00,
2013-02-26 10:51:00,37.9,31.0,30.32,ENE,75,4.0,9.0,76,0.00,,,0.00,Wunderground v.1.15,2013-02-26 15:51:00,
2013-02-26 10:56:00,37.8,30.9,30.32,ENE,74,5.0,9.0,76,0.00,,,0.00,Wunderground v.1.15,2013-02-26 15:56:00,
2013-02-26 11:01:00,37.4,30.5,30.32,ENE,66,8.0,8.0,76,0.00,,,0.00,Wunderground v.1.15,2013-02-26 16:01:00,
2013-02-26 11:06:00,37.4,30.2,30.32,ENE,68,7.0,9.0,75,0.00,,,0.00,Wunderground v.1.15,2013-02-26 16:06:00,
2013-02-26 11:11:00,37.5,30.3,30.32,East,83,7.0,9.0,75,0.00,,,0.00,Wunderground v.1.15,2013-02-26 16:11:00,
2013-02-26 11:17:00,37.8,30.3,30.32,East,80,6.0,9.0,74,0.00,,,0.00,Wunderground v.1.15,2013-02-26 16:17:00,
2013-02-26 11:22:00,38.0,30.4,30.31,NE,53,3.0,6.0,74,0.00,,,0.00,Wunderground v.1.15,2013-02-26 16:22:00,
2013-02-26 11:27:00,38.1,30.9,30.31,ENE,63,4.0,7.0,75,0.00,,,0.00,Wunderground v.1.15,2013-02-26 16:27:00,
2013-02-26 11:32:00,38.2,29.3,30.31,East,92,6.0,9.0,70,0.00,,,0.00,Wunderground v.1.15,2013-02-26 16:32:00,
2013-02-26 11:37:00,38.9,29.2,30.31,ENE,78,1.0,9.0,68,0.00,,,0.00,Wunderground v.1.15,2013-02-26 16:37:00,
2013-02-26 11:42:00,39.2,28.8,30.32,East,92,6.0,7.0,66,0.00,,,0.00,Wunderground v.1.15,2013-02-26 16:42:00,
2013-02-26 11:47:00,39.6,28.8,30.31,South,169,3.0,7.0,65,0.00,,,0.00,Wunderground v.1.15,2013-02-26 16:47:00,
2013-02-26 11:52:00,40.8,28.0,30.31,SSE,155,0.0,3.0,60,0.00,,,0.00,Wunderground v.1.15,2013-02-26 16:52:00,
2013-02-26 11:57:00,41.6,28.3,30.31,East,97,8.0,9.0,59,0.00,,,0.00,Wunderground v.1.15,2013-02-26 16:57:00,
2013-02-26 12:02:00,40.5,27.7,30.31,East,97,9.0,10.0,60,0.00,,,0.00,Wunderground v.1.15,2013-02-26 17:02:00,
2013-02-26 12:07:00,39.8,27.0,30.31,East,90,0.0,10.0,60,0.00,,,0.00,Wunderground v.1.15,2013-02-26 17:07:00,
2013-02-26 12:12:00,40.1,27.3,30.31,East,101,2.0,9.0,60,0.00,,,0.00,Wunderground v.1.15,2013-02-26 17:12:00,
2013-02-26 12:17:00,41.0,26.5,30.31,ESE,109,1.0,9.0,56,0.00,,,0.00,Wunderground v.1.15,2013-02-26 17:17:00,
2013-02-26 12:22:00,40.8,27.2,30.31,SE,124,1.0,13.0,58,0.00,,,0.00,Wunderground v.1.15,2013-02-26 17:22:00,
2013-02-26 12:27:00,40.6,27.0,30.31,East,90,6.0,13.0,58,0.00,,,0.00,Wunderground v.1.15,2013-02-26 17:27:00,
2013-02-26 12:32:00,40.1,27.7,30.31,ESE,109,5.0,13.0,61,0.00,,,0.00,Wunderground v.1.15,2013-02-26 17:32:00,
2013-02-26 12:37:00,40.0,28.0,30.31,ENE,73,10.0,13.0,62,0.00,,,0.00,Wunderground v.1.15,2013-02-26 17:37:00,
2013-02-26 12:42:00,39.1,28.3,30.32,ENE,77,8.0,9.0,65,0.00,,,0.00,Wunderground v.1.15,2013-02-26 17:42:00,
2013-02-26 12:47:00,38.8,27.7,30.31,East,86,9.0,13.0,64,0.00,,,0.00,Wunderground v.1.15,2013-02-26 17:47:00,
2013-02-26 12:52:00,38.9,28.1,30.31,East,81,8.0,9.0,65,0.00,,,0.00,Wunderground v.1.15,2013-02-26 17:52:00,
2013-02-26 12:57:00,38.5,28.5,30.31,East,87,9.0,12.0,67,0.00,,,0.00,Wunderground v.1.15,2013-02-26 17:57:00,
2013-02-26 13:02:00,38.3,27.9,30.30,East,88,7.0,10.0,66,0.00,,,0.00,Wunderground v.1.15,2013-02-26 18:02:00,
2013-02-26 13:07:00,39.2,28.0,30.30,East,96,8.0,10.0,64,0.00,,,0.00,Wunderground v.1.15,2013-02-26 18:07:00,
2013-02-26 13:12:00,39.1,27.9,30.30,ENE,74,8.0,11.0,64,0.00,,,0.00,Wunderground v.1.15,2013-02-26 18:12:00,
2013-02-26 13:17:00,38.8,28.0,30.30,East,92,9.0,11.0,65,0.00,,,0.00,Wunderground v.1.15,2013-02-26 18:17:00,
2013-02-26 13:22:00,39.4,28.2,30.30,East,95,3.0,8.0,64,0.00,,,0.00,Wunderground v.1.15,2013-02-26 18:22:00,
2013-02-26 13:27:00,40.0,28.4,30.30,East,97,3.0,8.0,63,0.00,,,0.00,Wunderground v.1.15,2013-02-26 18:27:00,
2013-02-26 13:32:00,39.8,28.6,30.30,East,82,6.0,9.0,64,0.00,,,0.00,Wunderground v.1.15,2013-02-26 18:32:00,
2013-02-26 13:37:00,39.3,28.9,30.30,ENE,72,8.0,9.0,66,0.00,,,0.00,Wunderground v.1.15,2013-02-26 18:37:00,
2013-02-26 13:42:00,38.7,29.0,30.30,ESE,106,9.0,9.0,68,0.00,,,0.00,Wunderground v.1.15,2013-02-26 18:42:00,
2013-02-26 13:48:00,38.8,29.1,30.29,East,84,5.0,9.0,68,0.00,,,0.00,Wunderground v.1.15,2013-02-26 18:48:00,
2013-02-26 13:53:00,38.6,28.9,30.29,East,82,2.0,6.0,68,0.00,,,0.00,Wunderground v.1.15,2013-02-26 18:53:00,
2013-02-26 13:58:00,38.6,29.7,30.29,ENE,64,0.0,6.0,70,0.00,,,0.00,Wunderground v.1.15,2013-02-26 18:58:00,
2013-02-26 14:03:00,38.7,29.0,30.29,East,84,6.0,7.0,68,0.00,,,0.00,Wunderground v.1.15,2013-02-26 19:03:00,
2013-02-26 14:08:00,38.6,29.3,30.29,East,89,7.0,10.0,69,0.00,,,0.00,Wunderground v.1.15,2013-02-26 19:08:00,
2013-02-26 14:13:00,38.7,28.7,30.28,East,82,7.0,10.0,67,0.00,,,0.00,Wunderground v.1.15,2013-02-26 19:13:00,
2013-02-26 14:18:00,38.9,29.2,30.29,ESE,107,0.0,10.0,68,0.00,,,0.00,Wunderground v.1.15,2013-02-26 19:18:00,
2013-02-26 14:23:00,39.4,29.3,30.29,East,84,5.0,5.0,67,0.00,,,0.00,Wunderground v.1.15,2013-02-26 19:23:00,
2013-02-26 14:28:00,39.2,29.9,30.28,East,87,3.0,8.0,69,0.00,,,0.00,Wunderground v.1.15,2013-02-26 19:28:00,
2013-02-26 14:33:00,39.4,29.3,30.28,South,181,0.0,4.0,67,0.00,,,0.00,Wunderground v.1.15,2013-02-26 19:33:00,
2013-02-26 14:38:00,40.3,29.8,30.27,East,87,7.0,9.0,66,0.00,,,0.00,Wunderground v.1.15,2013-02-26 19:38:00,
2013-02-26 14:43:00,39.8,29.4,30.27,East,91,7.0,13.0,66,0.00,,,0.00,Wunderground v.1.15,2013-02-26 19:43:00,
2013-02-26 14:48:00,39.2,29.5,30.27,East,87,11.0,13.0,68,0.00,,,0.00,Wunderground v.1.15,2013-02-26 19:48:00,
2013-02-26 14:53:00,38.6,28.9,30.27,East,96,8.0,11.0,68,0.00,,,0.00,Wunderground v.1.15,2013-02-26 19:53:00,
2013-02-26 14:58:00,38.3,29.0,30.27,East,80,10.0,14.0,69,0.00,,,0.00,Wunderground v.1.15,2013-02-26 19:58:00,
2013-02-26 15:03:00,38.4,29.1,30.26,East,94,7.0,10.0,69,0.00,,,0.00,Wunderground v.1.15,2013-02-26 20:03:00,
2013-02-26 15:08:00,38.8,28.8,30.27,East,96,7.0,10.0,67,0.00,,,0.00,Wunderground v.1.15,2013-02-26 20:08:00,
2013-02-26 15:13:00,39.1,28.7,30.27,East,92,5.0,10.0,66,0.00,,,0.00,Wunderground v.1.15,2013-02-26 20:13:00,
2013-02-26 15:18:00,39.5,28.7,30.27,ESE,105,0.0,10.0,65,0.00,,,0.00,Wunderground v.1.15,2013-02-26 20:18:00,
2013-02-26 15:23:00,39.7,28.9,30.27,ESE,104,3.0,5.0,65,0.00,,,0.00,Wunderground v.1.15,2013-02-26 20:23:00,
2013-02-26 15:28:00,39.4,28.6,30.27,ESE,105,4.0,10.0,65,0.00,,,0.00,Wunderground v.1.15,2013-02-26 20:28:00,
2013-02-26 15:34:00,38.9,28.9,30.28,ESE,103,0.0,9.0,67,0.00,,,0.00,Wunderground v.1.15,2013-02-26 20:34:00,
2013-02-26 15:39:00,38.9,28.9,30.28,East,99,1.0,9.0,67,0.00,,,0.00,Wunderground v.1.15,2013-02-26 20:39:00,
2013-02-26 15:44:00,39.3,28.5,30.28,SSE,161,0.0,3.0,65,0.00,,,0.00,Wunderground v.1.15,2013-02-26 20:44:00,
2013-02-26 15:49:00,39.5,28.3,30.28,East,94,2.0,7.0,64,0.00,,,0.00,Wunderground v.1.15,2013-02-26 20:49:00,
2013-02-26 15:54:00,39.6,28.4,30.28,East,101,2.0,5.0,64,0.00,,,0.00,Wunderground v.1.15,2013-02-26 20:54:00,
2013-02-26 15:59:00,39.3,28.9,30.27,ESE,103,3.0,8.0,66,0.00,,,0.00,Wunderground v.1.15,2013-02-26 20:59:00,
2013-02-26 16:04:00,38.7,28.7,30.27,ESE,113,2.0,8.0,67,0.00,,,0.00,Wunderground v.1.15,2013-02-26 21:04:00,
2013-02-26 16:09:00,38.7,27.9,30.27,East,100,1.0,8.0,65,0.00,,,0.00,Wunderground v.1.15,2013-02-26 21:09:00,
2013-02-26 16:14:00,38.8,28.0,30.27,ESE,105,5.0,7.0,65,0.00,,,0.00,Wunderground v.1.15,2013-02-26 21:14:00,
2013-02-26 16:19:00,38.2,28.6,30.27,East,101,3.0,9.0,68,0.00,,,0.00,Wunderground v.1.15,2013-02-26 21:19:00,
2013-02-26 16:24:00,38.0,28.0,30.27,East,96,1.0,6.0,67,0.00,,,0.00,Wunderground v.1.15,2013-02-26 21:24:00,
2013-02-26 16:30:00,38.0,27.6,30.27,East,96,2.0,6.0,66,0.00,,,0.00,Wunderground v.1.15,2013-02-26 21:30:00,
2013-02-26 16:35:00,37.8,28.2,30.27,East,100,2.0,8.0,68,0.00,,,0.00,Wunderground v.1.15,2013-02-26 21:35:00,
2013-02-26 16:40:00,37.5,27.5,30.27,ESE,104,5.0,5.0,67,0.00,,,0.00,Wunderground v.1.15,2013-02-26 21:40:00,
2013-02-26 16:45:00,37.3,27.7,30.26,East,99,3.0,9.0,68,0.00,,,0.00,Wunderground v.1.15,2013-02-26 21:45:00,
2013-02-26 16:50:00,37.2,27.2,30.26,ESE,105,5.0,10.0,67,0.00,,,0.00,Wunderground v.1.15,2013-02-26 21:50:00,
2013-02-26 16:55:00,37.2,27.2,30.26,East,99,9.0,11.0,67,0.00,,,0.00,Wunderground v.1.15,2013-02-26 21:55:00,
2013-02-26 17:00:00,37.1,27.2,30.26,East,101,5.0,5.0,67,0.00,,,0.00,Wunderground v.1.15,2013-02-26 22:00:00,
2013-02-26 17:05:00,37.1,27.2,30.26,ESE,105,3.0,7.0,67,0.00,,,0.00,Wunderground v.1.15,2013-02-26 22:05:00,
2013-02-26 17:10:00,36.9,27.3,30.27,East,97,6.0,6.0,68,0.00,,,0.00,Wunderground v.1.15,2013-02-26 22:10:00,
2013-02-26 17:15:00,36.8,27.6,30.27,East,97,3.0,9.0,69,0.00,,,0.00,Wunderground v.1.15,2013-02-26 22:15:00,
2013-02-26 17:20:00,36.7,27.5,30.27,ESE,102,4.0,4.0,69,0.00,,,0.00,Wunderground v.1.15,2013-02-26 22:20:00,
2013-02-26 17:25:00,36.6,27.7,30.27,ESE,103,2.0,8.0,70,0.00,,,0.00,Wunderground v.1.15,2013-02-26 22:25:00,
2013-02-26 17:30:00,36.5,27.6,30.27,ESE,102,5.0,5.0,70,0.00,,,0.00,Wunderground v.1.15,2013-02-26 22:30:00,
2013-02-26 17:35:00,36.3,28.1,30.27,East,99,1.0,7.0,72,0.00,,,0.00,Wunderground v.1.15,2013-02-26 22:35:00,
2013-02-26 17:40:00,36.2,27.7,30.27,East,101,2.0,3.0,71,0.00,,,0.00,Wunderground v.1.15,2013-02-26 22:40:00,
2013-02-26 17:45:00,36.2,27.7,30.26,East,99,0.0,5.0,71,0.00,,,0.00,Wunderground v.1.15,2013-02-26 22:45:00,
2013-02-26 17:50:00,36.2,28.0,30.26,East,100,0.0,3.0,72,0.00,,,0.00,Wunderground v.1.15,2013-02-26 22:50:00,
2013-02-26 17:55:00,36.1,27.9,30.26,East,97,1.0,3.0,72,0.00,,,0.00,Wunderground v.1.15,2013-02-26 22:55:00,
2013-02-26 18:00:00,36.0,28.2,30.26,East,97,0.0,1.0,73,0.00,,,0.00,Wunderground v.1.15,2013-02-26 23:00:00,
2013-02-26 18:05:00,35.9,28.4,30.26,East,97,0.0,1.0,74,0.00,,,0.00,Wunderground v.1.15,2013-02-26 23:05:00,
2013-02-26 18:11:00,35.8,28.3,30.26,East,97,0.0,2.0,74,0.00,,,0.00,Wunderground v.1.15,2013-02-26 23:11:00,
2013-02-26 18:16:00,35.7,28.6,30.26,East,97,0.0,2.0,75,0.00,,,0.00,Wunderground v.1.15,2013-02-26 23:16:00,
2013-02-26 18:21:00,35.6,28.5,30.27,East,97,0.0,0.0,75,0.00,,,0.00,Wunderground v.1.15,2013-02-26 23:21:00,
2013-02-26 18:26:00,35.5,28.7,30.27,East,97,1.0,2.0,76,0.00,,,0.00,Wunderground v.1.15,2013-02-26 23:26:00,
2013-02-26 18:31:00,35.4,28.6,30.26,East,97,3.0,3.0,76,0.00,,,0.00,Wunderground v.1.15,2013-02-26 23:31:00,
2013-02-26 18:36:00,35.1,28.6,30.26,East,97,2.0,5.0,77,0.00,,,0.00,Wunderground v.1.15,2013-02-26 23:36:00,
2013-02-26 18:41:00,35.0,28.8,30.26,East,98,1.0,3.0,78,0.00,,,0.00,Wunderground v.1.15,2013-02-26 23:41:00,
2013-02-26 18:46:00,34.7,28.9,30.26,East,97,2.0,5.0,79,0.00,,,0.00,Wunderground v.1.15,2013-02-26 23:46:00,
2013-02-26 18:51:00,34.3,29.1,30.25,East,92,5.0,5.0,81,0.00,,,0.00,Wunderground v.1.15,2013-02-26 23:51:00,
2013-02-26 18:56:00,34.0,29.1,30.25,East,91,2.0,5.0,82,0.00,,,0.00,Wunderground v.1.15,2013-02-26 23:56:00,
2013-02-26 19:01:00,33.8,28.9,30.24,East,90,3.0,5.0,82,0.00,,,0.00,Wunderground v.1.15,2013-02-27 00:01:00,
2013-02-26 19:06:00,33.6,29.0,30.24,East,86,5.0,6.0,83,0.00,,,0.00,Wunderground v.1.15,2013-02-27 00:06:00,
2013-02-26 19:11:00,33.6,29.0,30.24,East,90,2.0,4.0,83,0.00,,,0.00,Wunderground v.1.15,2013-02-27 00:11:00,
2013-02-26 19:16:00,33.7,29.1,30.24,East,94,0.0,4.0,83,0.00,,,0.00,Wunderground v.1.15,2013-02-27 00:16:00,
2013-02-26 19:21:00,33.8,29.2,30.24,East,94,0.0,1.0,83,0.00,,,0.00,Wunderground v.1.15,2013-02-27 00:21:00,
2013-02-26 19:26:00,34.0,29.4,30.24,East,98,3.0,5.0,83,0.00,,,0.00,Wunderground v.1.15,2013-02-27 00:26:00,
2013-02-26 19:31:00,34.0,29.1,30.25,East,90,1.0,2.0,82,0.00,,,0.00,Wunderground v.1.15,2013-02-27 00:31:00,
2013-02-26 19:36:00,34.1,29.2,30.25,East,90,0.0,2.0,82,0.00,,,0.00,Wunderground v.1.15,2013-02-27 00:36:00,
2013-02-26 19:41:00,34.1,29.2,30.25,East,90,0.0,0.0,82,0.00,,,0.00,Wunderground v.1.15,2013-02-27 00:41:00,
2013-02-26 19:46:00,34.1,29.2,30.25,East,90,0.0,0.0,82,0.00,,,0.00,Wunderground v.1.15,2013-02-27 00:46:00,
2013-02-26 19:51:00,34.0,29.4,30.25,East,90,1.0,1.0,83,0.00,,,0.00,Wunderground v.1.15,2013-02-27 00:51:00,
2013-02-26 19:56:00,33.9,29.3,30.24,East,90,2.0,2.0,83,0.00,,,0.00,Wunderground v.1.15,2013-02-27 00:56:00,
2013-02-26 20:01:00,33.9,29.3,30.24,East,90,3.0,3.0,83,0.00,,,0.00,Wunderground v.1.15,2013-02-27 01:01:00,
2013-02-26 20:06:00,33.6,29.3,30.24,East,90,1.0,3.0,84,0.00,,,0.00,Wunderground v.1.15,2013-02-27 01:06:00,
2013-02-26 20:11:00,33.3,29.3,30.24,East,90,0.0,2.0,85,0.00,,,0.00,Wunderground v.1.15,2013-02-27 01:11:00,
2013-02-26 20:16:00,33.0,29.3,30.24,East,90,0.0,2.0,86,0.00,,,0.00,Wunderground v.1.15,2013-02-27 01:16:00,
2013-02-26 20:21:00,32.7,29.0,30.24,East,90,0.0,0.0,86,0.00,,,0.00,Wunderground v.1.15,2013-02-27 01:21:00,
2013-02-26 20:26:00,32.6,29.2,30.24,East,90,0.0,0.0,87,0.00,,,0.00,Wunderground v.1.15,2013-02-27 01:26:00,
2013-02-26 20:32:00,32.5,29.1,30.24,East,90,0.0,0.0,87,0.00,,,0.00,Wunderground v.1.15,2013-02-27 01:32:00,
2013-02-26 20:37:00,32.5,29.1,30.24,East,90,0.0,0.0,87,0.00,,,0.00,Wunderground v.1.15,2013-02-27 01:37:00,
2013-02-26 20:42:00,32.5,29.1,30.24,East,90,0.0,0.0,87,0.00,,,0.00,Wunderground v.1.15,2013-02-27 01:42:00,
2013-02-26 20:47:00,32.6,29.2,30.24,East,90,0.0,0.0,87,0.00,,,0.00,Wunderground v.1.15,2013-02-27 01:47:00,
2013-02-26 20:52:00,32.7,29.3,30.24,East,90,0.0,0.0,87,0.00,,,0.00,Wunderground v.1.15,2013-02-27 01:52:00,
2013-02-26 20:57:00,32.8,29.4,30.23,East,90,0.0,1.0,87,0.00,,,0.00,Wunderground v.1.15,2013-02-27 01:57:00,
2013-02-26 21:02:00,32.8,29.4,30.22,East,90,2.0,2.0,87,0.00,,,0.00,Wunderground v.1.15,2013-02-27 02:02:00,
2013-02-26 21:07:00,32.6,29.4,30.22,East,90,2.0,2.0,88,0.00,,,0.00,Wunderground v.1.15,2013-02-27 02:07:00,
2013-02-26 21:12:00,32.5,29.3,30.21,East,90,1.0,1.0,88,0.00,,,0.00,Wunderground v.1.15,2013-02-27 02:12:00,
2013-02-26 21:17:00,32.5,29.3,30.21,East,90,2.0,3.0,88,0.00,,,0.00,Wunderground v.1.15,2013-02-27 02:17:00,
2013-02-26 21:22:00,32.4,29.5,30.21,East,80,5.0,5.0,89,0.00,,,0.00,Wunderground v.1.15,2013-02-27 02:22:00,
2013-02-26 21:27:00,32.4,29.5,30.21,ENE,72,1.0,5.0,89,0.00,,,0.00,Wunderground v.1.15,2013-02-27 02:27:00,
2013-02-26 21:32:00,32.4,29.5,30.21,ENE,72,2.0,3.0,89,0.00,,,0.00,Wunderground v.1.15,2013-02-27 02:32:00,
2013-02-26 21:37:00,32.4,29.8,30.21,East,81,3.0,5.0,90,0.00,,,0.00,Wunderground v.1.15,2013-02-27 02:37:00,
2013-02-26 21:42:00,32.6,29.7,30.20,East,84,2.0,3.0,89,0.00,,,0.00,Wunderground v.1.15,2013-02-27 02:42:00,
2013-02-26 21:47:00,32.7,29.8,30.20,East,84,3.0,3.0,89,0.00,,,0.00,Wunderground v.1.15,2013-02-27 02:47:00,
2013-02-26 21:52:00,32.8,29.9,30.20,East,85,3.0,3.0,89,0.00,,,0.00,Wunderground v.1.15,2013-02-27 02:52:00,
2013-02-26 21:58:00,32.9,30.0,30.20,East,84,2.0,5.0,89,0.00,,,0.00,Wunderground v.1.15,2013-02-27 02:58:00,
2013-02-26 22:03:00,33.0,30.1,30.19,East,94,3.0,5.0,89,0.00,,,0.00,Wunderground v.1.15,2013-02-27 03:03:00,
2013-02-26 22:08:00,33.1,30.2,30.19,East,80,3.0,6.0,89,0.00,,,0.00,Wunderground v.1.15,2013-02-27 03:08:00,
2013-02-26 22:13:00,33.0,30.1,30.19,East,80,2.0,5.0,89,0.00,,,0.00,Wunderground v.1.15,2013-02-27 03:13:00,
2013-02-26 22:18:00,32.8,29.9,30.19,ENE,74,3.0,5.0,89,0.00,,,0.00,Wunderground v.1.15,2013-02-27 03:18:00,
2013-02-26 22:23:00,32.8,30.2,30.18,ENE,74,3.0,3.0,90,0.00,,,0.00,Wunderground v.1.15,2013-02-27 03:23:00,
2013-02-26 22:28:00,32.8,30.2,30.18,ENE,76,3.0,4.0,90,0.00,,,0.00,Wunderground v.1.15,2013-02-27 03:28:00,
2013-02-26 22:33:00,32.8,30.2,30.17,ENE,78,3.0,4.0,90,0.00,,,0.00,Wunderground v.1.15,2013-02-27 03:33:00,
2013-02-26 22:38:00,33.0,30.4,30.17,ENE,78,3.0,4.0,90,0.00,,,0.00,Wunderground v.1.15,2013-02-27 03:38:00,
2013-02-26 22:43:00,33.2,30.6,30.17,ENE,78,2.0,4.0,90,0.00,,,0.00,Wunderground v.1.15,2013-02-27 03:43:00,
2013-02-26 22:48:00,33.2,30.6,30.16,East,79,3.0,5.0,90,0.00,,,0.00,Wunderground v.1.15,2013-02-27 03:48:00,
2013-02-26 22:53:00,33.3,30.7,30.15,ENE,77,4.0,5.0,90,0.00,,,0.00,Wunderground v.1.15,2013-02-27 03:53:00,
2013-02-26 22:58:00,33.5,30.9,30.15,East,89,3.0,6.0,90,0.00,,,0.00,Wunderground v.1.15,2013-02-27 03:58:00,
2013-02-26 23:03:00,33.7,31.1,30.15,East,85,5.0,6.0,90,0.00,,,0.00,Wunderground v.1.15,2013-02-27 04:03:00,
2013-02-26 23:08:00,33.9,31.3,30.15,East,91,5.0,7.0,90,0.00,,,0.00,Wunderground v.1.15,2013-02-27 04:08:00,
2013-02-26 23:13:00,34.1,31.2,30.14,East,88,6.0,7.0,89,0.00,,,0.00,Wunderground v.1.15,2013-02-27 04:13:00,
2013-02-26 23:18:00,34.4,31.5,30.14,East,90,7.0,9.0,89,0.00,,,0.00,Wunderground v.1.15,2013-02-27 04:18:00,
2013-02-26 23:23:00,34.6,31.7,30.14,East,81,3.0,7.0,89,0.00,,,0.00,Wunderground v.1.15,2013-02-27 04:23:00,
2013-02-26 23:28:00,34.7,31.8,30.14,ENE,78,5.0,7.0,89,0.00,,,0.00,Wunderground v.1.15,2013-02-27 04:28:00,
2013-02-26 23:33:00,34.8,31.9,30.14,East,91,3.0,6.0,89,0.00,,,0.00,Wunderground v.1.15,2013-02-27 04:33:00,
2013-02-26 23:38:00,34.9,32.0,30.14,East,90,6.0,7.0,89,0.00,,,0.00,Wunderground v.1.15,2013-02-27 04:38:00,
2013-02-26 23:43:00,35.0,32.1,30.13,East,85,7.0,8.0,89,0.00,,,0.00,Wunderground v.1.15,2013-02-27 04:43:00,
2013-02-26 23:48:00,35.2,32.3,30.14,East,96,7.0,9.0,89,0.00,,,0.00,Wunderground v.1.15,2013-02-27 04:48:00,
2013-02-26 23:54:00,35.4,32.5,30.13,ESE,113,2.0,8.0,89,0.00,,,0.00,Wunderground v.1.15,2013-02-27 04:54:00,
2013-02-26 23:59:00,35.8,32.9,30.13,East,96,8.0,10.0,89,0.00,,,0.00,Wunderground v.1.15,2013-02-27 04:59:00,